Time;durP1;ratioP1;P1;durP2;ratioP2;P2;SDS_P1;SDS_P2;PMS_P1;PMS_P2;Temp;Humidity;BMP_temperature;BMP_pressure;BME280_temperature;BME280_humidity;BME280_pressure;Samples;Min_cycle;Max_cycle;Signal;HPM_P1;HPM_P2
2023/05/09 00:00:19;;;;;;;5.87;4.73;;;;;;;3.95;85.41;98413.41;6239151;28;20219;-92
2023/05/09 00:03:21;;;;;;;6.60;4.80;;;;;;;3.24;85.05;98298.88;6257184;28;20238;-90
2023/05/09 00:06:27;;;;;;;5.30;4.60;;;;;;;3.69;85.07;98376.13;6223220;28;20223;-90
2023/05/09 00:09:30;;;;;;;5.53;4.90;;;;;;;4.27;85.20;98456.22;6218411;28;20227;-92
2023/05/09 00:12:32;;;;;;;6.10;4.87;;;;;;;4.25;85.40;98453.78;6238925;28;20229;-91
2023/05/09 00:15:35;;;;;;;6.93;4.30;;;;;;;3.77;85.35;98389.22;6222649;28;20457;-93
2023/05/09 00:18:37;;;;;;;6.67;5.00;;;;;;;3.33;85.42;98309.16;6238579;28;20229;-91
2023/05/09 00:21:39;;;;;;;5.87;4.47;;;;;;;3.59;85.47;98364.03;6233765;28;20318;-90
2023/05/09 00:24:41;;;;;;;9.37;4.77;;;;;;;4.15;85.57;98447.97;6219875;28;20724;-92
2023/05/09 00:27:43;;;;;;;5.90;5.17;;;;;;;3.39;85.47;98331.31;6222864;28;20226;-91
2023/05/09 00:30:46;;;;;;;5.70;4.23;;;;;;;3.86;85.61;98401.31;6221757;28;20231;-91
2023/05/09 00:33:48;;;;;;;6.27;5.00;;;;;;;2.43;85.44;98168.91;6221809;28;20235;-91
2023/05/09 00:36:50;;;;;;;5.03;4.50;;;;;;;2.15;85.62;98118.69;6221534;28;20230;-93
2023/05/09 00:39:53;;;;;;;4.93;4.23;;;;;;;4.23;85.66;98442.59;6237169;28;20225;-92
2023/05/09 00:42:58;;;;;;;5.03;4.30;;;;;;;2.81;85.50;98199.47;6236962;28;20786;-92
2023/05/09 00:46:00;;;;;;;4.90;4.13;;;;;;;3.52;85.37;98333.34;6239357;28;20229;-91
2023/05/09 00:49:03;;;;;;;6.70;4.37;;;;;;;2.93;85.23;98244.56;6222754;28;20346;-92
2023/05/09 00:52:06;;;;;;;6.47;5.33;;;;;;;3.67;85.16;98357.06;6221619;28;20639;-91
2023/05/09 00:55:09;;;;;;;5.70;5.10;;;;;;;3.71;84.96;98353.88;6236975;28;20238;-91
2023/05/09 00:58:12;;;;;;;6.13;5.07;;;;;;;2.97;85.30;98264.25;6237611;28;20231;-91
2023/05/09 01:01:15;;;;;;;5.57;4.67;;;;;;;3.42;85.63;98330.16;6236709;28;20253;-91
2023/05/09 01:04:17;;;;;;;9.07;4.97;;;;;;;1.64;85.32;98058.84;6237019;28;20252;-91
2023/05/09 01:07:45;;;;;;;6.27;4.80;;;;;;;3.94;85.61;98424.13;6221030;28;20232;-92
2023/05/09 01:10:53;;;;;;;7.57;5.00;;;;;;;3.87;85.99;98411.66;6229059;28;20231;-91
2023/05/09 01:14:14;;;;;;;8.13;5.23;;;;;;;2.44;85.89;98192.38;6221814;28;20234;-92
2023/05/09 01:17:30;;;;;;;6.30;5.10;;;;;;;3.88;86.17;98417.75;6237012;28;20235;-91
2023/05/09 01:21:02;;;;;;;6.53;4.40;;;;;;;3.43;86.15;98358.09;6244132;28;20258;-91
2023/05/09 01:24:23;;;;;;;8.03;5.10;;;;;;;3.83;86.43;98410.38;6211567;28;20243;-90
2023/05/09 01:27:50;;;;;;;8.23;6.00;;;;;;;3.82;86.45;98408.75;6220014;28;20237;-92
2023/05/09 01:30:54;;;;;;;6.50;5.40;;;;;;;3.00;86.58;98292.84;6218317;28;20238;-91
2023/05/09 01:34:01;;;;;;;8.97;5.30;;;;;;;3.80;86.86;98413.41;6235396;28;20243;-91
2023/05/09 01:37:05;;;;;;;6.53;4.80;;;;;;;2.40;86.34;98203.44;6212871;28;20223;-91
2023/05/09 01:40:17;;;;;;;7.10;5.53;;;;;;;3.43;86.87;98345.75;6236041;28;20260;-92
2023/05/09 01:43:21;;;;;;;9.43;6.10;;;;;;;1.57;86.89;98068.41;6231987;28;20239;-91
2023/05/09 01:46:25;;;;;;;8.17;5.43;;;;;;;3.16;87.03;98341.09;6219535;28;20235;-91
2023/05/09 01:49:31;;;;;;;6.03;5.27;;;;;;;3.29;87.35;98323.66;6236424;28;20230;-91
2023/05/09 01:52:36;;;;;;;6.97;5.13;;;;;;;3.35;87.12;98341.41;6219289;28;20227;-92
2023/05/09 01:55:41;;;;;;;8.30;5.90;;;;;;;2.94;87.34;98296.19;6219875;28;20235;-91
2023/05/09 01:58:48;;;;;;;8.60;5.30;;;;;;;1.99;87.59;98159.06;6225295;28;20231;-92
2023/05/09 02:01:53;;;;;;;7.57;5.60;;;;;;;1.16;87.41;97987.31;6224959;28;20227;-91
2023/05/09 02:04:56;;;;;;;8.30;5.27;;;;;;;3.46;87.57;98361.22;6236518;28;20224;-92
2023/05/09 02:08:00;;;;;;;5.90;4.80;;;;;;;1.33;87.28;98023.94;6236615;28;20317;-91
2023/05/09 02:11:02;;;;;;;7.47;5.50;;;;;;;3.04;87.46;98302.00;6236045;28;20783;-91
2023/05/09 02:14:06;;;;;;;9.87;5.37;;;;;;;1.94;87.21;98137.75;6219646;28;20570;-91
2023/05/09 02:17:10;;;;;;;5.10;4.57;;;;;;;3.29;86.94;98354.44;6235881;28;20242;-92
2023/05/09 02:20:13;;;;;;;8.23;5.97;;;;;;;2.79;87.45;98288.25;6219469;28;20227;-91
2023/05/09 02:23:15;;;;;;;6.57;4.87;;;;;;;3.54;87.59;98395.34;6233668;28;20237;-92
2023/05/09 02:26:18;;;;;;;6.10;4.97;;;;;;;3.09;87.47;98346.22;6218467;28;20533;-92
2023/05/09 02:29:25;;;;;;;10.33;5.57;;;;;;;3.17;87.39;98332.19;6235040;28;20223;-92
2023/05/09 02:32:30;;;;;;;6.83;5.90;;;;;;;2.89;87.75;98301.16;6237411;28;20219;-91
2023/05/09 02:35:34;;;;;;;8.30;5.83;;;;;;;2.56;87.60;98240.94;6238919;28;20230;-91
2023/05/09 02:38:37;;;;;;;7.23;6.23;;;;;;;3.03;88.12;98329.34;6224118;28;20647;-92
2023/05/09 02:41:39;;;;;;;10.17;5.93;;;;;;;2.55;88.49;98256.88;6225792;28;20238;-91
2023/05/09 02:44:41;;;;;;;8.40;6.40;;;;;;;3.44;88.52;98392.16;6221607;28;20235;-91
2023/05/09 02:47:43;;;;;;;7.13;5.97;;;;;;;3.47;88.65;98383.09;6219157;28;20227;-92
2023/05/09 02:50:46;;;;;;;6.97;6.27;;;;;;;1.77;88.25;98109.00;6234646;28;20233;-92
2023/05/09 02:53:48;;;;;;;9.17;6.03;;;;;;;2.75;88.03;98271.19;6253167;28;20223;-91
2023/05/09 02:56:50;;;;;;;9.93;6.03;;;;;;;2.80;88.20;98281.19;6235730;28;20627;-91
2023/05/09 02:59:52;;;;;;;7.23;5.33;;;;;;;2.70;88.03;98310.34;6214873;28;20231;-92
2023/05/09 03:02:56;;;;;;;6.87;5.63;;;;;;;1.59;87.98;98097.13;6235325;28;20223;-91
2023/05/09 03:05:58;;;;;;;7.50;6.40;;;;;;;3.12;88.10;98345.06;6217991;28;20716;-91
2023/05/09 03:09:00;;;;;;;8.97;5.43;;;;;;;2.68;88.13;98269.44;6214943;28;20513;-91
2023/05/09 03:12:04;;;;;;;8.33;5.90;;;;;;;2.67;88.34;98291.50;6221392;28;20225;-91
2023/05/09 03:15:08;;;;;;;7.20;6.07;;;;;;;2.95;88.66;98337.28;6227763;28;20221;-91
2023/05/09 03:18:13;;;;;;;8.07;6.63;;;;;;;3.08;88.43;98349.88;6234828;28;20211;-92
2023/05/09 03:21:16;;;;;;;7.20;6.13;;;;;;;2.61;88.60;98263.25;6218126;28;20214;-91
2023/05/09 03:24:18;;;;;;;8.63;6.50;;;;;;;3.03;88.78;98329.34;6233013;28;20246;-91
2023/05/09 03:27:21;;;;;;;10.00;7.07;;;;;;;2.71;88.65;98274.34;6231842;28;20237;-92
2023/05/09 03:30:26;;;;;;;7.80;6.53;;;;;;;1.37;88.46;98061.97;6240703;28;20235;-91
2023/05/09 03:33:29;;;;;;;10.67;6.63;;;;;;;1.74;88.21;98137.41;6237067;28;20233;-91
2023/05/09 03:36:34;;;;;;;7.30;6.20;;;;;;;2.50;88.99;98259.22;6237565;28;20227;-92
2023/05/09 03:39:36;;;;;;;7.37;6.20;;;;;;;1.09;88.39;98053.78;6240559;28;20819;-91
2023/05/09 03:42:38;;;;;;;9.67;6.50;;;;;;;2.66;88.45;98290.69;6239169;28;20522;-91
2023/05/09 03:45:41;;;;;;;8.00;6.20;;;;;;;3.40;89.00;98376.91;6238718;28;20233;-91
2023/05/09 03:48:44;;;;;;;10.33;6.13;;;;;;;3.15;88.85;98344.69;6238863;28;20234;-91
2023/05/09 03:51:47;;;;;;;12.13;6.80;;;;;;;3.16;88.87;98333.19;6238265;28;20612;-91
2023/05/09 03:54:50;;;;;;;10.53;6.47;;;;;;;3.08;88.75;98310.38;6239584;28;20258;-91
2023/05/09 03:57:54;;;;;;;10.93;6.07;;;;;;;2.91;88.79;98287.84;6222484;28;20856;-91
2023/05/09 04:00:58;;;;;;;8.67;6.80;;;;;;;2.05;88.94;98176.75;6232598;28;20227;-92
2023/05/09 04:04:00;;;;;;;7.70;6.30;;;;;;;3.30;88.50;98345.53;6239077;28;20239;-91
2023/05/09 04:07:07;;;;;;;7.73;6.53;;;;;;;1.81;88.66;98097.13;6238204;28;20242;-92
2023/05/09 04:10:09;;;;;;;9.57;7.30;;;;;;;3.26;89.14;98368.00;6223115;28;20310;-92
2023/05/09 04:13:12;;;;;;;7.70;6.40;;;;;;;1.80;88.72;98126.19;6238102;28;20223;-91
2023/05/09 04:16:15;;;;;;;8.57;6.63;;;;;;;2.04;88.79;98133.91;6238314;28;20236;-92
2023/05/09 04:19:17;;;;;;;8.33;7.17;;;;;;;2.99;89.15;98274.59;6238365;28;20281;-91
2023/05/09 04:22:20;;;;;;;7.97;7.03;;;;;;;3.32;89.06;98325.13;6236075;28;20366;-91
2023/05/09 04:25:24;;;;;;;9.57;7.37;;;;;;;3.10;89.09;98276.78;6238726;28;20235;-91
2023/05/09 04:28:26;;;;;;;9.47;6.97;;;;;;;3.01;89.16;98259.47;6237252;28;20777;-91
2023/05/09 04:31:30;;;;;;;13.20;7.00;;;;;;;1.97;89.16;98104.06;6239514;28;20243;-92
2023/05/09 04:34:33;;;;;;;9.93;7.47;;;;;;;3.27;89.67;98299.34;6238387;28;20236;-91
2023/05/09 04:37:41;;;;;;;8.80;7.07;;;;;;;2.03;88.96;98094.66;6221663;28;20235;-91
2023/05/09 04:40:45;;;;;;;9.30;6.97;;;;;;;3.71;89.43;98343.34;6238507;28;20770;-92
2023/05/09 04:43:47;;;;;;;8.37;6.50;;;;;;;3.75;89.58;98336.72;6221563;28;20273;-91
2023/05/09 04:46:50;;;;;;;8.40;6.93;;;;;;;4.18;89.51;98408.03;6237615;28;20243;-91
2023/05/09 04:49:52;;;;;;;8.67;7.20;;;;;;;3.80;89.66;98352.78;6221485;28;20238;-91
2023/05/09 04:52:54;;;;;;;7.67;6.20;;;;;;;3.84;89.48;98350.59;6221444;28;20274;-90
2023/05/09 04:55:56;;;;;;;7.57;6.73;;;;;;;4.08;89.51;98355.56;6239266;28;20235;-91
2023/05/09 04:58:59;;;;;;;7.93;6.73;;;;;;;3.32;89.54;98207.47;6220744;28;20443;-92
2023/05/09 05:02:03;;;;;;;9.50;7.07;;;;;;;4.47;89.45;98393.16;6235836;28;20277;-91
2023/05/09 05:05:06;;;;;;;7.63;6.77;;;;;;;4.52;89.43;98394.25;6238113;28;20230;-91
2023/05/09 05:08:16;;;;;;;11.87;7.33;;;;;;;4.02;89.78;98308.03;6235097;28;20245;-91
2023/05/09 05:11:20;;;;;;;8.07;6.67;;;;;;;3.41;89.58;98192.38;6238192;28;20639;-91
2023/05/09 05:14:23;;;;;;;9.03;7.00;;;;;;;4.49;90.18;98348.97;6220529;28;20860;-91
2023/05/09 05:17:28;;;;;;;8.73;6.67;;;;;;;4.90;90.24;98384.31;6221684;28;20229;-91
2023/05/09 05:20:34;;;;;;;8.07;7.07;;;;;;;5.03;90.34;98385.47;6220421;28;20224;-92
2023/05/09 05:23:36;;;;;;;10.17;6.60;;;;;;;4.57;90.22;98296.06;6235511;28;20243;-91
2023/05/09 05:26:39;;;;;;;7.87;6.50;;;;;;;4.76;89.65;98308.63;6220739;28;20604;-91
2023/05/09 05:29:41;;;;;;;9.10;6.30;;;;;;;4.77;89.66;98289.16;6238885;28;20223;-91
2023/05/09 05:32:44;;;;;;;6.87;5.17;;;;;;;5.25;89.52;98336.88;6232286;28;20808;-91
2023/05/09 05:35:50;;;;;;;6.77;5.90;;;;;;;4.97;88.64;98284.03;6220815;28;20227;-92
2023/05/09 05:38:52;;;;;;;7.60;5.40;;;;;;;5.41;84.32;98289.03;6220846;28;20252;-92
2023/05/09 05:41:54;;;;;;;5.53;4.83;;;;;;;6.17;85.25;98386.09;6238767;28;20278;-92
2023/05/09 05:45:00;;;;;;;5.63;4.30;;;;;;;5.68;84.17;98289.19;6241194;28;20479;-92
2023/05/09 05:48:03;;;;;;;6.27;4.60;;;;;;;5.23;82.80;98208.69;6224255;28;20233;-92
2023/05/09 05:51:06;;;;;;;7.83;5.23;;;;;;;4.54;79.05;98048.47;6222675;28;20218;-93
2023/05/09 05:54:09;;;;;;;6.40;4.33;;;;;;;5.50;80.14;98197.22;6242362;28;20256;-92
2023/05/09 05:57:12;;;;;;;6.20;4.73;;;;;;;6.35;79.35;98300.88;6239585;28;20212;-92
2023/05/09 06:00:15;;;;;;;4.63;4.00;;;;;;;6.95;79.26;98384.75;6236850;28;20606;-93
2023/05/09 06:03:21;;;;;;;4.80;4.40;;;;;;;7.05;78.46;98388.84;6232826;28;20239;-92
2023/05/09 06:06:30;;;;;;;8.20;4.50;;;;;;;5.31;76.94;98111.56;6217557;28;20239;-92
2023/05/09 06:09:32;;;;;;;7.07;4.03;;;;;;;7.31;75.58;98372.97;6219977;28;20230;-91
2023/05/09 06:12:35;;;;;;;7.53;4.27;;;;;;;7.19;74.45;98295.91;6219974;28;20230;-92
2023/05/09 06:15:37;;;;;;;6.17;4.07;;;;;;;7.20;74.88;98278.19;6237046;28;20223;-93
2023/05/09 06:18:39;;;;;;;6.47;4.40;;;;;;;7.49;74.93;98300.78;6234737;28;20321;-92
2023/05/09 06:21:42;;;;;;;5.83;4.80;;;;;;;7.27;73.10;98268.38;6235219;28;20318;-92
2023/05/09 06:24:45;;;;;;;8.10;4.87;;;;;;;7.52;71.97;98259.78;6235308;28;20239;-93
2023/05/09 06:27:47;;;;;;;9.93;4.30;;;;;;;8.24;73.17;98357.69;6218461;28;20223;-92
2023/05/09 06:30:49;;;;;;;4.13;3.73;;;;;;;7.45;74.00;98218.19;6236503;28;20235;-93
2023/05/09 06:33:52;;;;;;;5.70;3.90;;;;;;;7.91;68.83;98291.47;6219711;28;20739;-92
2023/05/09 06:36:54;;;;;;;5.40;3.90;;;;;;;7.62;72.26;98223.03;6235609;28;20242;-92
2023/05/09 06:39:56;;;;;;;4.57;3.80;;;;;;;7.87;68.60;98234.56;6218134;28;20639;-93
2023/05/09 06:42:58;;;;;;;4.13;3.73;;;;;;;7.42;69.45;98143.56;6230139;28;20246;-93
2023/05/09 06:46:01;;;;;;;4.83;3.50;;;;;;;8.20;68.91;98212.34;6219005;28;20243;-92
2023/05/09 06:49:04;;;;;;;4.40;3.50;;;;;;;9.08;69.97;98345.22;6218703;28;20243;-92
2023/05/09 06:52:07;;;;;;;4.87;3.40;;;;;;;7.59;68.20;98078.44;6234429;28;20241;-83
2023/05/09 06:55:10;;;;;;;5.17;3.27;;;;;;;8.88;65.09;98244.41;6227857;28;20224;-83
2023/05/09 06:58:12;;;;;;;3.53;3.20;;;;;;;9.08;65.07;98262.84;6217803;28;20231;-83
2023/05/09 07:01:14;;;;;;;5.53;3.47;;;;;;;9.58;67.43;98323.94;6216355;28;20878;-84
2023/05/09 07:04:16;;;;;;;4.70;3.10;;;;;;;9.19;65.33;98240.84;6232446;28;20239;-84
2023/05/09 07:07:18;;;;;;;4.60;2.93;;;;;;;10.00;65.14;98319.63;6234955;28;20239;-84
2023/05/09 07:10:23;;;;;;;7.37;3.33;;;;;;;9.25;64.29;98194.78;6233379;28;20267;-83
2023/05/09 07:13:27;;;;;;;4.83;2.97;;;;;;;10.21;63.06;98301.56;6220339;28;20224;-84
2023/05/09 07:16:29;;;;;;;7.10;3.20;;;;;;;10.18;61.63;98246.09;6219800;28;20233;-84
2023/05/09 07:19:32;;;;;;;3.33;3.00;;;;;;;10.25;60.51;98233.56;6212528;28;20242;-84
2023/05/09 07:22:34;;;;;;;5.63;3.70;;;;;;;10.41;59.84;98226.75;6231628;28;20233;-83
2023/05/09 07:25:38;;;;;;;4.40;3.37;;;;;;;10.79;57.92;98288.50;6217494;28;20777;-84
2023/05/09 07:28:40;;;;;;;4.77;2.43;;;;;;;10.26;57.55;98187.25;6217415;28;20234;-84
2023/05/09 07:31:42;;;;;;;6.70;3.33;;;;;;;10.76;58.77;98224.19;6211784;28;20240;-84
2023/05/09 07:34:45;;;;;;;4.33;3.13;;;;;;;11.03;56.69;98252.03;6233445;28;20801;-83
2023/05/09 07:37:47;;;;;;;5.57;3.30;;;;;;;10.93;58.08;98209.13;6217144;28;20233;-83
2023/05/09 07:40:49;;;;;;;3.23;2.43;;;;;;;11.32;58.08;98257.47;6215236;28;20231;-83
2023/05/09 07:43:51;;;;;;;3.43;2.40;;;;;;;11.79;57.17;98282.28;6250744;28;20241;-83
2023/05/09 07:46:54;;;;;;;3.20;2.90;;;;;;;11.78;58.28;98240.63;6233129;28;20322;-84
2023/05/09 07:49:56;;;;;;;4.53;2.50;;;;;;;12.07;55.54;98281.56;6215379;28;20787;-83
2023/05/09 07:52:59;;;;;;;4.07;2.50;;;;;;;11.98;52.96;98228.78;6234143;28;20737;-83
2023/05/09 07:56:01;;;;;;;4.07;2.90;;;;;;;11.98;53.09;98234.09;6231219;28;20246;-83
2023/05/09 07:59:03;;;;;;;3.47;3.10;;;;;;;12.40;56.79;98290.75;6249052;28;20223;-83
2023/05/09 08:02:05;;;;;;;3.00;2.60;;;;;;;11.97;52.84;98211.94;6232485;28;20651;-83
2023/05/09 08:05:10;;;;;;;3.07;2.30;;;;;;;11.72;55.49;98190.84;6233171;28;20235;-82
2023/05/09 08:08:12;;;;;;;3.83;2.40;;;;;;;11.86;55.55;98220.78;6232938;28;20377;-82
2023/05/09 08:11:14;;;;;;;3.20;2.63;;;;;;;12.48;53.82;98290.38;6216581;28;20244;-84
2023/05/09 08:14:16;;;;;;;2.97;2.67;;;;;;;12.36;53.64;98249.50;6236509;28;20242;-83
2023/05/09 08:17:19;;;;;;;3.50;3.20;;;;;;;12.06;55.86;98218.50;6237470;28;20235;-83
2023/05/09 08:20:21;;;;;;;3.17;2.50;;;;;;;12.27;58.04;98218.91;6237431;28;20712;-83
2023/05/09 08:23:23;;;;;;;4.27;2.93;;;;;;;12.33;53.69;98207.25;6236455;28;20607;-84
2023/05/09 08:26:26;;;;;;;3.80;2.80;;;;;;;12.37;53.13;98213.75;6221896;28;20320;-83
2023/05/09 08:29:28;;;;;;;3.30;2.77;;;;;;;12.35;53.73;98221.97;6233869;28;20721;-84
2023/05/09 08:32:30;;;;;;;3.57;2.73;;;;;;;12.50;53.48;98228.66;6220936;28;20243;-84
2023/05/09 08:35:33;;;;;;;3.63;2.80;;;;;;;12.76;52.09;98262.81;6238137;28;20700;-84
2023/05/09 08:38:35;;;;;;;2.87;2.57;;;;;;;12.39;52.94;98201.75;6237613;28;20235;-83
2023/05/09 08:41:38;;;;;;;5.23;3.20;;;;;;;12.75;55.26;98268.38;6237260;28;20245;-82
2023/05/09 08:44:40;;;;;;;3.27;2.60;;;;;;;12.85;54.65;98233.78;6238340;28;20239;-83
2023/05/09 08:47:44;;;;;;;3.27;2.93;;;;;;;13.16;52.91;98243.94;6237013;28;20242;-84
2023/05/09 08:50:46;;;;;;;3.77;2.60;;;;;;;12.54;53.55;98113.00;6235995;28;20603;-84
2023/05/09 08:53:50;;;;;;;3.67;2.80;;;;;;;12.12;50.81;98037.84;6219961;28;20231;-83
2023/05/09 08:56:53;;;;;;;6.47;3.20;;;;;;;13.04;51.47;98168.31;6236730;28;20234;-84
2023/05/09 08:59:56;;;;;;;7.00;2.87;;;;;;;13.23;53.97;98216.22;6220772;28;20241;-83
2023/05/09 09:03:02;;;;;;;3.20;2.10;;;;;;;12.77;55.33;98165.50;6223791;28;20355;-92
2023/05/09 09:06:08;;;;;;;4.00;2.70;;;;;;;12.86;53.65;98211.38;6243345;28;20246;-92
2023/05/09 09:09:12;;;;;;;3.80;3.00;;;;;;;11.64;54.98;98020.44;6228303;28;20286;-93
2023/05/09 09:12:16;;;;;;;4.33;2.70;;;;;;;12.78;56.45;98244.66;6244821;28;20207;-92
2023/05/09 09:15:21;;;;;;;3.30;2.30;;;;;;;10.35;55.17;97866.31;6245656;28;20215;-92
2023/05/09 09:18:28;;;;;;;4.40;2.70;;;;;;;12.61;52.09;98179.66;6245626;28;20243;-91
2023/05/09 09:21:31;;;;;;;3.53;2.87;;;;;;;10.43;54.52;97855.28;6227726;28;20228;-92
2023/05/09 09:24:35;;;;;;;6.47;2.70;;;;;;;11.67;55.43;98062.63;6243667;28;20453;-91
2023/05/09 09:27:37;;;;;;;5.80;3.40;;;;;;;11.79;52.60;98089.28;6245988;28;20230;-92
2023/05/09 09:30:44;;;;;;;2.97;2.60;;;;;;;12.42;54.06;98213.03;6230774;28;20257;-92
2023/05/09 09:33:47;;;;;;;4.37;3.03;;;;;;;12.18;52.86;98150.91;6243698;28;20227;-91
2023/05/09 09:36:49;;;;;;;2.87;2.50;;;;;;;9.41;53.87;97708.63;6244349;28;20238;-92
2023/05/09 09:39:56;;;;;;;4.10;2.93;;;;;;;9.72;53.16;97718.06;6225403;28;20251;-93
2023/05/09 09:42:58;;;;;;;3.20;2.83;;;;;;;9.96;51.77;97708.19;6244534;28;20464;-91
2023/05/09 09:46:04;;;;;;;3.37;2.57;;;;;;;10.43;52.46;97755.94;6246296;28;20231;-91
2023/05/09 09:49:09;;;;;;;4.73;2.90;;;;;;;12.38;51.46;98031.81;6256571;28;20237;-92
2023/05/09 09:52:22;;;;;;;2.47;2.23;;;;;;;12.63;52.01;98038.59;6257200;28;20261;-91
2023/05/09 09:55:24;;;;;;;4.37;2.97;;;;;;;13.01;49.68;98044.97;6256511;28;20259;-91
2023/05/09 09:58:27;;;;;;;3.70;2.70;;;;;;;13.55;51.39;98165.56;6257135;28;20247;-92
2023/05/09 10:01:30;;;;;;;4.43;2.80;;;;;;;10.82;50.75;97746.22;6252929;28;20249;-91
2023/05/09 10:04:34;;;;;;;6.07;2.97;;;;;;;12.11;50.03;98028.97;6250237;28;20552;-90
2023/05/09 10:07:37;;;;;;;3.73;2.77;;;;;;;12.99;51.21;98154.84;6242528;28;20238;-90
2023/05/09 10:10:41;;;;;;;4.20;2.87;;;;;;;13.43;50.35;98197.78;6234743;28;20230;-91
2023/05/09 10:13:44;;;;;;;4.10;3.13;;;;;;;12.11;50.78;97983.59;6217685;28;20799;-90
2023/05/09 10:16:48;;;;;;;4.97;2.87;;;;;;;13.26;51.14;98191.66;6243086;28;20242;-91
2023/05/09 10:19:51;;;;;;;3.83;3.40;;;;;;;11.59;52.23;97927.75;6240826;28;20700;-92
2023/05/09 10:22:57;;;;;;;3.20;2.60;;;;;;;10.81;51.92;97779.25;6225170;28;20255;-91
2023/05/09 10:26:07;;;;;;;7.33;3.17;;;;;;;13.38;51.22;98165.59;6218978;28;20238;-91
2023/05/09 10:29:13;;;;;;;4.70;2.93;;;;;;;13.21;51.27;98176.31;6241191;28;20223;-91
2023/05/09 10:32:21;;;;;;;3.80;2.40;;;;;;;13.64;52.35;98218.41;6238283;28;20231;-92
2023/05/09 10:35:33;;;;;;;3.67;2.60;;;;;;;10.25;50.97;97743.63;6235834;28;20581;-91
2023/05/09 10:38:36;;;;;;;3.40;2.53;;;;;;;11.39;53.43;97873.28;6223833;28;20232;-91
2023/05/09 10:41:39;;;;;;;3.90;2.93;;;;;;;13.46;52.17;98194.63;6214638;28;20230;-91
2023/05/09 10:44:41;;;;;;;2.70;2.27;;;;;;;13.62;52.39;98228.56;6228595;28;20241;-91
2023/05/09 10:47:46;;;;;;;3.70;2.90;;;;;;;12.69;50.40;98018.88;6227887;28;20314;-91
2023/05/09 10:50:49;;;;;;;5.33;2.40;;;;;;;13.81;50.33;98185.41;6225761;28;20334;-91
2023/05/09 10:53:51;;;;;;;3.87;2.47;;;;;;;12.65;49.64;97969.66;6239543;28;20231;-92
2023/05/09 10:56:55;;;;;;;4.27;2.70;;;;;;;12.07;48.13;97803.56;6239704;28;20231;-92
2023/05/09 10:59:59;;;;;;;3.93;2.40;;;;;;;11.48;48.79;97701.88;6237349;28;20230;-92
2023/05/09 11:03:07;;;;;;;4.60;2.60;;;;;;;13.28;48.93;97970.16;6231227;28;20265;-91
2023/05/09 11:06:44;;;;;;;4.63;2.70;;;;;;;14.73;47.26;98186.34;6219508;28;20443;-91
2023/05/09 11:10:08;;;;;;;3.10;2.40;;;;;;;14.20;48.97;98098.50;6232592;28;20722;-92
2023/05/09 11:13:10;;;;;;;2.97;2.73;;;;;;;14.98;46.46;98177.69;6212622;28;20326;-93
2023/05/09 11:16:13;;;;;;;2.93;2.63;;;;;;;12.19;48.07;97746.53;6221143;28;20287;-92
2023/05/09 11:19:55;;;;;;;2.40;2.17;;;;;;;15.00;47.79;98168.31;6225364;28;20230;-93
2023/05/09 11:22:58;;;;;;;3.50;2.50;;;;;;;12.57;47.06;97775.81;6216409;28;20227;-92
2023/05/09 11:26:07;;;;;;;5.57;2.47;;;;;;;13.07;47.75;97824.66;6228424;28;20726;-92
2023/05/09 11:29:10;;;;;;;4.27;2.43;;;;;;;13.25;47.05;97810.94;6227165;28;20227;-92
2023/05/09 11:32:14;;;;;;;5.53;2.40;;;;;;;14.13;45.86;97953.19;6216216;28;20226;-92
2023/05/09 11:35:20;;;;;;;2.93;2.30;;;;;;;14.78;45.52;98060.31;6232173;28;20245;-93
2023/05/09 11:38:22;;;;;;;3.33;2.17;;;;;;;14.76;46.78;98108.84;6235572;28;20240;-93
2023/05/09 11:41:26;;;;;;;3.97;2.60;;;;;;;13.55;46.90;97973.63;6235665;28;20372;-92
2023/05/09 11:44:32;;;;;;;4.23;2.53;;;;;;;14.60;48.13;98110.63;6220103;28;20600;-92
2023/05/09 11:47:36;;;;;;;4.43;2.00;;;;;;;13.57;49.53;97934.03;6220505;28;20330;-91
2023/05/09 11:50:40;;;;;;;2.77;2.10;;;;;;;14.37;48.33;98084.94;6224519;28;20218;-91
2023/05/09 11:53:45;;;;;;;5.00;2.60;;;;;;;13.68;48.03;97930.38;6224183;28;20242;-92
2023/05/09 11:56:48;;;;;;;3.37;2.83;;;;;;;15.11;47.83;98132.41;6224824;28;20245;-91
2023/05/09 11:59:50;;;;;;;4.43;2.83;;;;;;;13.28;46.73;97810.41;6240342;28;20233;-91
2023/05/09 12:02:53;;;;;;;3.03;2.60;;;;;;;14.12;46.79;97973.03;6241218;28;20234;-91
2023/05/09 12:05:55;;;;;;;2.73;2.47;;;;;;;13.95;47.30;97932.19;6241245;28;20234;-92
2023/05/09 12:08:58;;;;;;;3.87;2.30;;;;;;;14.49;46.75;98006.28;6239305;28;20632;-91
2023/05/09 12:12:01;;;;;;;4.63;2.87;;;;;;;14.67;46.96;98008.50;6238706;28;20223;-92
2023/05/09 12:15:06;;;;;;;3.00;2.70;;;;;;;15.35;45.72;98089.06;6240475;28;20211;-92
2023/05/09 12:18:09;;;;;;;6.83;3.00;;;;;;;14.84;45.77;97992.25;6236160;28;20227;-92
2023/05/09 12:21:11;;;;;;;3.20;2.87;;;;;;;15.38;45.16;98062.50;6240601;28;20441;-92
2023/05/09 12:24:19;;;;;;;3.73;2.67;;;;;;;14.07;45.90;97906.00;6221679;28;20324;-92
2023/05/09 12:27:22;;;;;;;3.20;2.40;;;;;;;14.74;46.71;98045.84;6236952;28;20454;-91
2023/05/09 12:30:25;;;;;;;3.00;2.43;;;;;;;15.18;48.65;98116.09;6247973;28;20231;-92
2023/05/09 12:33:29;;;;;;;5.20;2.57;;;;;;;14.60;46.88;97943.59;6223444;28;20234;-90
2023/05/09 12:36:34;;;;;;;8.10;2.77;;;;;;;14.34;45.19;97905.09;6222059;28;20235;-92
2023/05/09 12:39:37;;;;;;;2.40;2.20;;;;;;;15.35;46.35;98025.44;6222252;28;20231;-92
2023/05/09 12:42:43;;;;;;;4.63;2.40;;;;;;;15.54;45.85;98087.50;6239917;28;20238;-90
2023/05/09 12:45:52;;;;;;;4.07;2.80;;;;;;;13.35;46.81;97737.97;6225785;28;20316;-91
2023/05/09 12:48:56;;;;;;;2.90;2.40;;;;;;;14.13;46.56;97829.94;6226649;28;20611;-91
2023/05/09 12:52:01;;;;;;;5.20;2.13;;;;;;;15.53;46.22;98061.75;6244367;28;20238;-91
2023/05/09 12:55:11;;;;;;;3.17;2.20;;;;;;;15.49;47.96;98060.66;6228229;28;20231;-90
2023/05/09 12:58:14;;;;;;;3.67;2.47;;;;;;;15.43;48.15;98057.16;6245325;28;20353;-91
2023/05/09 13:01:26;;;;;;;4.73;2.97;;;;;;;12.50;49.73;97628.22;6226473;28;20226;-91
2023/05/09 13:04:28;;;;;;;3.27;2.40;;;;;;;13.33;46.60;97767.66;6224077;28;20235;-92
2023/05/09 13:07:51;;;;;;;2.40;2.20;;;;;;;15.39;47.21;98045.31;6224905;28;20276;-92
2023/05/09 13:10:54;;;;;;;3.57;2.43;;;;;;;15.49;46.43;98069.50;6218003;28;20220;-92
2023/05/09 13:14:09;;;;;;;3.23;2.13;;;;;;;14.09;46.96;97836.91;6223637;28;20746;-91
2023/05/09 13:17:11;;;;;;;4.40;2.90;;;;;;;13.51;46.23;97777.16;6241459;28;20238;-91
2023/05/09 13:20:14;;;;;;;3.73;2.40;;;;;;;15.35;46.95;98035.38;6224940;28;20241;-91
2023/05/09 13:23:17;;;;;;;3.37;2.23;;;;;;;14.38;48.06;97914.22;6239283;28;20444;-91
2023/05/09 13:26:20;;;;;;;3.57;2.17;;;;;;;15.34;46.11;98039.13;6242035;28;20238;-92
2023/05/09 13:29:22;;;;;;;3.03;2.00;;;;;;;13.05;47.05;97699.22;6220692;28;20227;-91
2023/05/09 13:32:25;;;;;;;3.17;2.30;;;;;;;15.25;46.09;98016.53;6233950;28;20239;-91
2023/05/09 13:35:27;;;;;;;2.83;2.50;;;;;;;14.62;44.69;97875.22;6239505;28;20226;-91
2023/05/09 13:38:31;;;;;;;4.40;2.23;;;;;;;15.57;46.13;98025.25;6222772;28;20230;-91
2023/05/09 13:41:33;;;;;;;3.23;2.43;;;;;;;15.17;43.81;97967.69;6235124;28;20236;-92
2023/05/09 13:44:38;;;;;;;2.43;2.23;;;;;;;15.34;45.10;98017.66;6222356;28;20253;-92
2023/05/09 13:47:41;;;;;;;4.93;2.60;;;;;;;14.74;46.57;97941.25;6237066;28;20850;-91
2023/05/09 13:50:43;;;;;;;3.13;2.33;;;;;;;14.55;47.12;97914.88;6238174;28;20238;-91
2023/05/09 13:53:46;;;;;;;5.27;2.43;;;;;;;13.45;44.38;97689.88;6235884;28;20234;-91
2023/05/09 13:56:50;;;;;;;4.77;2.40;;;;;;;13.51;44.57;97691.50;6237454;28;20280;-91
2023/05/09 13:59:52;;;;;;;2.90;2.37;;;;;;;13.36;45.56;97651.28;6232890;28;20713;-91
2023/05/09 14:02:54;;;;;;;2.60;2.40;;;;;;;15.36;44.05;97948.38;6236972;28;20237;-92
2023/05/09 14:05:57;;;;;;;2.60;2.30;;;;;;;15.71;43.06;97986.09;6235488;28;20246;-91
2023/05/09 14:08:59;;;;;;;3.20;2.47;;;;;;;15.54;42.27;97955.94;6236989;28;20242;-91
2023/05/09 14:12:02;;;;;;;4.50;2.30;;;;;;;14.83;44.88;97886.03;6219665;28;20242;-92
2023/05/09 14:15:06;;;;;;;5.80;2.57;;;;;;;15.27;44.80;97971.44;6237712;28;20337;-92
2023/05/09 14:18:08;;;;;;;5.03;2.03;;;;;;;15.36;46.19;97976.03;6237711;28;20218;-88
2023/05/09 14:21:11;;;;;;;2.73;2.37;;;;;;;13.75;45.64;97693.75;6236693;28;20302;-91
2023/05/09 14:24:13;;;;;;;5.40;2.20;;;;;;;15.41;43.54;97924.22;6218228;28;20512;-91
2023/05/09 14:27:18;;;;;;;3.17;2.07;;;;;;;14.68;44.69;97827.81;6224988;28;20227;-92
2023/05/09 14:30:22;;;;;;;2.80;2.23;;;;;;;15.33;43.12;97922.91;6224504;28;20270;-90